Time;durP1;ratioP1;P1;durP2;ratioP2;P2;SDS_P1;SDS_P2;PMS_P1;PMS_P2;Temp;Humidity;BMP_temperature;BMP_pressure;BME280_temperature;BME280_humidity;BME280_pressure;Samples;Min_cycle;Max_cycle;Signal;HPM_P1;HPM_P2
2021/10/16 00:01:28;;;;;;;15.07;5.03;;;;;;;;;;5017767;28;20718;-72
2021/10/16 00:03:53;;;;;;;11.23;4.03;;;;;;;;;;5024171;28;20237;-72
2021/10/16 00:06:19;;;;;;;14.83;4.57;;;;;;;;;;5018861;28;20187;-72
2021/10/16 00:08:44;;;;;;;15.40;3.80;;;;;;;;;;5021257;28;20277;-72
2021/10/16 00:11:11;;;;;;;11.80;4.10;;;;;;;;;;5025471;28;20249;-72
2021/10/16 00:13:37;;;;;;;19.90;4.43;;;;;;;;;;5022705;28;20194;-72
2021/10/16 00:16:03;;;;;;;12.27;4.57;;;;;;;;;;5023994;28;20185;-72
2021/10/16 00:18:28;;;;;;;10.80;4.30;;;;;;;;;;5017292;28;20372;-72
2021/10/16 00:20:55;;;;;;;11.77;4.27;;;;;;;;;;5027253;28;20289;-72
2021/10/16 00:23:21;;;;;;;14.70;4.60;;;;;;;;;;5016413;28;20268;-72
2021/10/16 00:25:47;;;;;;;11.27;4.50;;;;;;;;;;5026937;28;20186;-72
2021/10/16 00:28:12;;;;;;;15.97;4.87;;;;;;;;;;5019990;28;20593;-72
2021/10/16 00:30:38;;;;;;;13.57;4.60;;;;;;;;;;5023063;28;20558;-72
2021/10/16 00:33:03;;;;;;;17.30;4.10;;;;;;;;;;5017148;28;20182;-72
2021/10/16 00:35:28;;;;;;;16.00;4.00;;;;;;;;;;5026576;28;20218;-72
2021/10/16 00:37:54;;;;;;;15.60;4.40;;;;;;;;;;5024077;28;20254;-72
2021/10/16 00:40:19;;;;;;;15.00;3.97;;;;;;;;;;5018659;28;20277;-72
2021/10/16 00:42:50;;;;;;;11.27;4.00;;;;;;;;;;5027073;28;20189;-72
2021/10/16 00:45:18;;;;;;;12.73;4.00;;;;;;;;;;5020198;28;20634;-72
2021/10/16 00:47:43;;;;;;;12.67;4.17;;;;;;;;;;5024562;28;20190;-72
2021/10/16 00:50:10;;;;;;;11.87;4.13;;;;;;;;;;5019280;28;20174;-72
2021/10/16 00:52:37;;;;;;;13.73;4.30;;;;;;;;;;5022824;28;20191;-72
2021/10/16 00:55:03;;;;;;;15.03;4.23;;;;;;;;;;5020746;28;20268;-72
2021/10/16 00:57:28;;;;;;;14.07;4.23;;;;;;;;;;5023905;28;20297;-72
2021/10/16 00:59:54;;;;;;;10.67;3.90;;;;;;;;;;5018799;28;20623;-72
2021/10/16 01:02:20;;;;;;;16.27;3.83;;;;;;;;;;5025317;28;20628;-72
2021/10/16 01:04:46;;;;;;;16.60;4.70;;;;;;;;;;5015807;28;20238;-72
2021/10/16 01:07:12;;;;;;;12.27;4.03;;;;;;;;;;5024173;28;20186;-72
2021/10/16 01:09:40;;;;;;;16.00;4.17;;;;;;;;;;5024448;28;20556;-72
2021/10/16 01:12:06;;;;;;;13.67;4.53;;;;;;;;;;5016926;28;20182;-72
2021/10/16 01:14:32;;;;;;;15.60;4.97;;;;;;;;;;5023919;28;20629;-72
2021/10/16 01:16:58;;;;;;;15.97;4.40;;;;;;;;;;5018175;28;20188;-72
2021/10/16 01:19:27;;;;;;;8.87;3.83;;;;;;;;;;5023833;28;20480;-72
2021/10/16 01:21:55;;;;;;;11.37;4.13;;;;;;;;;;5016805;28;20243;-72
2021/10/16 01:24:20;;;;;;;14.53;3.80;;;;;;;;;;5021753;28;20270;-72
2021/10/16 01:26:48;;;;;;;14.27;4.27;;;;;;;;;;5017524;28;20269;-72
2021/10/16 01:29:21;;;;;;;10.00;4.33;;;;;;;;;;5020282;28;20609;-72
2021/10/16 01:31:47;;;;;;;11.40;4.27;;;;;;;;;;5016054;28;20222;-72
2021/10/16 01:34:13;;;;;;;10.10;4.03;;;;;;;;;;5024895;28;20680;-72
2021/10/16 01:36:49;;;;;;;7.47;3.40;;;;;;;;;;5016930;28;20213;-72
2021/10/16 01:39:15;;;;;;;15.43;4.00;;;;;;;;;;5025717;28;20190;-72
2021/10/16 01:41:43;;;;;;;12.80;4.30;;;;;;;;;;5017619;28;20257;-72
2021/10/16 01:44:09;;;;;;;8.70;3.47;;;;;;;;;;5023775;28;20206;-72
2021/10/16 01:46:35;;;;;;;12.93;4.27;;;;;;;;;;5020053;28;20192;-72
2021/10/16 01:49:14;;;;;;;12.10;3.83;;;;;;;;;;5018054;28;20189;-71
2021/10/16 01:51:41;;;;;;;11.07;4.13;;;;;;;;;;5021382;28;20326;-72
2021/10/16 01:54:07;;;;;;;14.17;4.10;;;;;;;;;;5014451;28;20211;-72
2021/10/16 01:56:33;;;;;;;14.37;4.57;;;;;;;;;;5027149;28;20667;-72
2021/10/16 01:59:19;;;;;;;14.03;4.40;;;;;;;;;;5016105;28;20257;-72
2021/10/16 02:01:45;;;;;;;12.73;4.20;;;;;;;;;;5018764;28;20234;-72
2021/10/16 02:04:12;;;;;;;10.83;3.70;;;;;;;;;;5016371;28;20202;-72
2021/10/16 02:06:38;;;;;;;13.50;4.00;;;;;;;;;;5023451;28;20198;-72
2021/10/16 02:09:04;;;;;;;16.13;4.20;;;;;;;;;;5020639;28;20244;-72
2021/10/16 02:11:29;;;;;;;12.00;4.37;;;;;;;;;;5024440;28;20197;-72
2021/10/16 02:13:55;;;;;;;8.33;3.60;;;;;;;;;;5020052;28;20178;-72
2021/10/16 02:16:20;;;;;;;12.97;3.80;;;;;;;;;;5027639;28;20269;-72
2021/10/16 02:18:46;;;;;;;10.47;4.23;;;;;;;;;;5017903;28;20282;-72
2021/10/16 02:21:11;;;;;;;10.07;3.50;;;;;;;;;;5025312;28;20606;-72
2021/10/16 02:23:37;;;;;;;8.50;3.70;;;;;;;;;;5027439;28;20202;-72
2021/10/16 02:26:02;;;;;;;10.90;3.53;;;;;;;;;;5023289;28;20618;-72
2021/10/16 02:28:27;;;;;;;12.77;3.70;;;;;;;;;;5029516;28;20280;-72
2021/10/16 02:30:53;;;;;;;12.00;3.80;;;;;;;;;;5020904;28;20217;-72
2021/10/16 02:33:18;;;;;;;10.93;3.63;;;;;;;;;;5028772;28;20179;-72
2021/10/16 02:35:43;;;;;;;10.10;3.40;;;;;;;;;;5017924;28;21469;-72
2021/10/16 02:38:08;;;;;;;8.67;3.17;;;;;;;;;;5028305;28;20197;-72
2021/10/16 02:40:34;;;;;;;9.63;3.40;;;;;;;;;;5018932;28;20252;-72
2021/10/16 02:43:01;;;;;;;9.47;3.27;;;;;;;;;;5027824;28;20260;-72
2021/10/16 02:45:27;;;;;;;8.67;3.67;;;;;;;;;;5018805;28;20190;-72
2021/10/16 02:47:53;;;;;;;9.03;3.53;;;;;;;;;;5024518;28;20190;-72
2021/10/16 02:50:18;;;;;;;13.90;3.87;;;;;;;;;;5018827;28;20190;-72
2021/10/16 02:52:44;;;;;;;13.93;5.23;;;;;;;;;;5030748;28;20205;-72
2021/10/16 02:55:10;;;;;;;14.33;3.73;;;;;;;;;;5029741;28;20251;-72
2021/10/16 02:57:35;;;;;;;8.67;3.90;;;;;;;;;;5021698;28;20202;-71
2021/10/16 03:00:01;;;;;;;12.87;3.60;;;;;;;;;;5023910;28;20878;-71
2021/10/16 03:02:26;;;;;;;11.27;4.53;;;;;;;;;;5019065;28;20617;-72
2021/10/16 03:04:51;;;;;;;13.97;4.10;;;;;;;;;;5030182;28;20617;-72
2021/10/16 03:07:16;;;;;;;9.40;3.83;;;;;;;;;;5022048;28;20691;-72
2021/10/16 03:09:42;;;;;;;18.60;4.47;;;;;;;;;;5025460;28;20220;-72
2021/10/16 03:12:09;;;;;;;12.70;3.93;;;;;;;;;;5019426;28;20740;-72
2021/10/16 03:14:34;;;;;;;12.73;3.97;;;;;;;;;;5028013;28;20269;-72
2021/10/16 03:17:00;;;;;;;9.00;3.80;;;;;;;;;;5022842;28;20690;-73
2021/10/16 03:19:25;;;;;;;11.73;3.80;;;;;;;;;;5025305;28;20257;-72
2021/10/16 03:21:50;;;;;;;11.40;3.47;;;;;;;;;;5024524;28;20186;-72
2021/10/16 03:24:16;;;;;;;9.00;3.50;;;;;;;;;;5025300;28;20202;-72
2021/10/16 03:26:41;;;;;;;9.73;3.83;;;;;;;;;;5026022;28;20290;-72
2021/10/16 03:29:06;;;;;;;8.53;3.60;;;;;;;;;;5021492;28;20276;-72
2021/10/16 03:31:32;;;;;;;10.63;3.97;;;;;;;;;;5024313;28;20182;-72
2021/10/16 03:33:57;;;;;;;9.13;4.10;;;;;;;;;;5020653;28;20278;-72
2021/10/16 03:36:22;;;;;;;12.77;4.07;;;;;;;;;;5026304;28;20186;-72
2021/10/16 03:38:48;;;;;;;12.17;4.70;;;;;;;;;;5020910;28;20182;-73
2021/10/16 03:41:13;;;;;;;7.53;3.60;;;;;;;;;;5023596;28;20251;-72
2021/10/16 03:43:38;;;;;;;9.47;3.80;;;;;;;;;;5022082;28;20293;-72
2021/10/16 03:46:04;;;;;;;10.00;3.70;;;;;;;;;;5026690;28;20225;-72
2021/10/16 03:48:30;;;;;;;9.87;3.93;;;;;;;;;;5019209;28;22200;-73
2021/10/16 03:50:55;;;;;;;8.17;3.47;;;;;;;;;;5026846;28;20182;-72
2021/10/16 03:53:21;;;;;;;14.07;3.90;;;;;;;;;;5027931;28;20645;-73
2021/10/16 03:55:46;;;;;;;9.20;3.67;;;;;;;;;;5018176;28;20229;-72
2021/10/16 03:58:12;;;;;;;9.63;3.60;;;;;;;;;;5029043;28;20202;-72
2021/10/16 04:00:38;;;;;;;13.83;4.20;;;;;;;;;;5018428;28;20614;-72
2021/10/16 04:03:05;;;;;;;11.93;4.00;;;;;;;;;;5024880;28;20175;-72
2021/10/16 04:05:31;;;;;;;13.13;4.33;;;;;;;;;;5016861;28;20182;-72
2021/10/16 04:07:56;;;;;;;7.53;3.67;;;;;;;;;;5028037;28;20196;-73
2021/10/16 04:10:22;;;;;;;11.20;4.33;;;;;;;;;;5019333;28;20194;-72
2021/10/16 04:12:47;;;;;;;18.03;3.70;;;;;;;;;;5028118;28;20212;-73
2021/10/16 04:15:13;;;;;;;14.13;3.83;;;;;;;;;;5017738;28;20269;-73
2021/10/16 04:17:38;;;;;;;9.67;3.87;;;;;;;;;;5027449;28;20194;-73
2021/10/16 04:20:04;;;;;;;11.60;3.80;;;;;;;;;;5019756;28;21334;-73
2021/10/16 04:22:31;;;;;;;9.93;3.73;;;;;;;;;;5024667;28;20196;-73
2021/10/16 04:24:56;;;;;;;13.83;4.20;;;;;;;;;;5024488;28;20253;-73
2021/10/16 04:27:23;;;;;;;15.60;3.73;;;;;;;;;;5017233;28;20182;-73
2021/10/16 04:29:49;;;;;;;10.77;3.80;;;;;;;;;;5027356;28;20182;-73
2021/10/16 04:32:14;;;;;;;12.03;4.00;;;;;;;;;;5017626;28;20646;-73
2021/10/16 04:34:40;;;;;;;14.57;4.67;;;;;;;;;;5028579;28;20257;-73
2021/10/16 04:37:05;;;;;;;13.73;3.93;;;;;;;;;;5020056;28;20221;-73
2021/10/16 04:39:30;;;;;;;6.20;3.47;;;;;;;;;;5025686;28;20239;-72
2021/10/16 04:41:56;;;;;;;10.53;3.77;;;;;;;;;;5016506;28;20190;-72
2021/10/16 04:44:21;;;;;;;10.60;3.87;;;;;;;;;;5024238;28;20229;-72
2021/10/16 04:46:47;;;;;;;9.63;3.57;;;;;;;;;;5014103;28;20186;-72
2021/10/16 04:49:12;;;;;;;10.13;3.87;;;;;;;;;;5023582;28;20184;-72
2021/10/16 04:51:38;;;;;;;11.40;4.53;;;;;;;;;;5014780;28;20286;-73
2021/10/16 04:54:03;;;;;;;12.80;4.70;;;;;;;;;;5023640;28;20843;-73
2021/10/16 04:56:29;;;;;;;8.97;3.67;;;;;;;;;;5023593;28;20206;-73
2021/10/16 04:58:54;;;;;;;14.90;4.50;;;;;;;;;;5014071;28;20756;-72
2021/10/16 05:01:19;;;;;;;12.23;4.67;;;;;;;;;;5023537;28;20230;-72
2021/10/16 05:03:45;;;;;;;11.37;4.97;;;;;;;;;;5019002;28;20759;-72
2021/10/16 05:06:10;;;;;;;18.37;5.60;;;;;;;;;;5022347;28;20281;-72
2021/10/16 05:08:36;;;;;;;18.83;6.43;;;;;;;;;;5015909;28;20186;-72
2021/10/16 05:11:02;;;;;;;18.13;6.33;;;;;;;;;;5024503;28;20232;-71
2021/10/16 05:13:27;;;;;;;12.20;5.83;;;;;;;;;;5017946;28;20186;-71
2021/10/16 05:15:52;;;;;;;16.10;8.00;;;;;;;;;;5024811;28;20183;-71
2021/10/16 05:18:18;;;;;;;15.37;6.07;;;;;;;;;;5016284;28;20738;-72
2021/10/16 05:20:43;;;;;;;13.90;6.20;;;;;;;;;;5023252;28;20197;-71
2021/10/16 05:23:09;;;;;;;18.67;5.83;;;;;;;;;;5018825;28;20182;-71
2021/10/16 05:25:34;;;;;;;16.27;5.87;;;;;;;;;;5026132;28;20705;-73
2021/10/16 05:27:59;;;;;;;23.33;7.10;;;;;;;;;;5024608;28;20204;-71
2021/10/16 05:30:25;;;;;;;12.93;4.83;;;;;;;;;;5016893;28;20263;-71
2021/10/16 05:32:50;;;;;;;16.20;5.63;;;;;;;;;;5023261;28;20182;-71
2021/10/16 05:35:15;;;;;;;17.23;5.73;;;;;;;;;;5017802;28;20190;-71
2021/10/16 05:37:42;;;;;;;17.97;5.83;;;;;;;;;;5023917;28;20185;-71
2021/10/16 05:40:08;;;;;;;14.30;4.97;;;;;;;;;;5011942;28;20212;-71
2021/10/16 05:42:33;;;;;;;20.27;5.27;;;;;;;;;;5023813;28;20202;-71
2021/10/16 05:45:01;;;;;;;14.97;5.60;;;;;;;;;;5022373;28;20213;-70
2021/10/16 05:47:27;;;;;;;14.47;5.40;;;;;;;;;;5029994;28;20185;-72
2021/10/16 05:49:52;;;;;;;15.03;5.83;;;;;;;;;;5017982;28;20190;-72
2021/10/16 05:52:17;;;;;;;17.93;5.87;;;;;;;;;;5023245;28;20620;-72
2021/10/16 05:54:43;;;;;;;14.80;5.17;;;;;;;;;;5018924;28;20166;-72
2021/10/16 05:57:08;;;;;;;18.57;6.67;;;;;;;;;;5027339;28;20693;-72
2021/10/16 05:59:33;;;;;;;22.37;6.30;;;;;;;;;;5027357;28;20170;-72
2021/10/16 06:01:58;;;;;;;11.93;6.17;;;;;;;;;;5020680;28;20257;-72
2021/10/16 06:04:24;;;;;;;12.67;6.07;;;;;;;;;;5024923;28;20216;-72
2021/10/16 06:06:50;;;;;;;15.97;6.53;;;;;;;;;;5019946;28;20190;-71
2021/10/16 06:09:15;;;;;;;13.30;6.33;;;;;;;;;;5027743;28;20276;-71
2021/10/16 06:11:41;;;;;;;15.60;6.23;;;;;;;;;;5017895;28;20209;-72
2021/10/16 06:14:06;;;;;;;16.17;6.53;;;;;;;;;;5029240;28;20196;-72
2021/10/16 06:16:32;;;;;;;12.33;5.97;;;;;;;;;;5019151;28;20197;-72
2021/10/16 06:19:02;;;;;;;18.63;6.90;;;;;;;;;;5028431;28;20199;-72
2021/10/16 06:21:28;;;;;;;12.00;4.83;;;;;;;;;;5017535;28;20221;-71
2021/10/16 06:23:53;;;;;;;15.60;6.10;;;;;;;;;;5025662;28;20206;-72
2021/10/16 06:26:18;;;;;;;19.70;6.23;;;;;;;;;;5015196;28;20870;-72
2021/10/16 06:28:44;;;;;;;21.17;6.30;;;;;;;;;;5025079;28;20230;-71
2021/10/16 06:31:09;;;;;;;13.83;5.80;;;;;;;;;;5022815;28;20201;-71
2021/10/16 06:33:34;;;;;;;23.47;6.67;;;;;;;;;;5017676;28;20182;-71
2021/10/16 06:36:01;;;;;;;15.37;5.80;;;;;;;;;;5023635;28;20316;-71
2021/10/16 06:38:27;;;;;;;18.90;5.90;;;;;;;;;;5017058;28;20551;-71
2021/10/16 06:40:52;;;;;;;16.40;6.00;;;;;;;;;;5025481;28;20193;-71
2021/10/16 06:43:18;;;;;;;12.20;4.97;;;;;;;;;;5016578;28;20198;-72
2021/10/16 06:45:43;;;;;;;18.87;5.93;;;;;;;;;;5026807;28;20214;-71
2021/10/16 06:48:08;;;;;;;12.43;5.23;;;;;;;;;;5015803;28;20186;-72
2021/10/16 06:50:34;;;;;;;17.90;5.90;;;;;;;;;;5024278;28;20194;-72
2021/10/16 06:52:59;;;;;;;12.00;5.60;;;;;;;;;;5014982;28;23957;-71
2021/10/16 06:55:24;;;;;;;14.17;6.10;;;;;;;;;;5025254;28;20194;-72
2021/10/16 06:57:50;;;;;;;20.67;7.73;;;;;;;;;;5025029;28;20206;-72
2021/10/16 07:00:16;;;;;;;23.67;7.37;;;;;;;;;;5019110;28;20222;-72
2021/10/16 07:02:41;;;;;;;18.90;7.50;;;;;;;;;;5020855;28;20284;-72
2021/10/16 07:05:07;;;;;;;16.83;7.47;;;;;;;;;;4318953;28;10000833;-72
2021/10/16 07:07:32;;;;;;;15.60;7.00;;;;;;;;;;5023794;28;20236;-72
2021/10/16 07:09:57;;;;;;;20.57;6.87;;;;;;;;;;5014025;28;20421;-72
2021/10/16 07:12:23;;;;;;;16.50;6.60;;;;;;;;;;5020696;28;20194;-72
2021/10/16 07:14:49;;;;;;;16.33;6.60;;;;;;;;;;5013392;28;20182;-71
2021/10/16 07:17:14;;;;;;;19.80;6.87;;;;;;;;;;5022802;28;20714;-72
2021/10/16 07:19:40;;;;;;;19.53;7.00;;;;;;;;;;5011972;28;20190;-72
2021/10/16 07:22:05;;;;;;;17.17;6.50;;;;;;;;;;5020164;28;20182;-72
2021/10/16 07:24:31;;;;;;;11.80;6.20;;;;;;;;;;5013086;28;22214;-73
2021/10/16 07:26:56;;;;;;;15.77;6.47;;;;;;;;;;5021946;28;20194;-72
2021/10/16 07:29:22;;;;;;;18.57;5.97;;;;;;;;;;5019866;28;20201;-71
2021/10/16 07:31:49;;;;;;;17.93;6.80;;;;;;;;;;5016820;28;20278;-71
2021/10/16 07:34:15;;;;;;;18.17;6.30;;;;;;;;;;5025638;28;20181;-71
2021/10/16 07:36:40;;;;;;;18.60;6.60;;;;;;;;;;5014411;28;20204;-72
2021/10/16 07:39:08;;;;;;;11.83;5.33;;;;;;;;;;5025567;28;20575;-71
2021/10/16 07:41:35;;;;;;;10.87;4.57;;;;;;;;;;5014914;28;20190;-71
2021/10/16 07:44:00;;;;;;;14.47;5.07;;;;;;;;;;5024571;28;20590;-71
2021/10/16 07:46:25;;;;;;;11.60;4.90;;;;;;;;;;5017454;28;20201;-71
2021/10/16 07:48:51;;;;;;;13.80;4.50;;;;;;;;;;5026129;28;20181;-71
2021/10/16 07:51:16;;;;;;;13.60;4.43;;;;;;;;;;5020444;28;20198;-71
2021/10/16 07:53:42;;;;;;;15.93;5.30;;;;;;;;;;5026769;28;20182;-72
2021/10/16 07:56:07;;;;;;;12.13;5.15;;;;;;;;;;5012658;28;20370;-72
2021/10/16 07:58:32;;;;;;;13.98;5.38;;;;;;;;;;5020081;28;20267;-71
2021/10/16 08:00:58;;;;;;;13.68;4.93;;;;;;;;;;5024151;28;20232;-72
2021/10/16 08:03:23;;;;;;;15.82;5.40;;;;;;;;;;5014938;28;20634;-71
2021/10/16 08:05:49;;;;;;;14.02;5.25;;;;;;;;;;5023331;28;20198;-71
2021/10/16 08:08:14;;;;;;;21.08;5.25;;;;;;;;;;5019135;28;20209;-72
2021/10/16 08:10:39;;;;;;;10.15;4.25;;;;;;;;;;5024443;28;20685;-71
2021/10/16 08:13:05;;;;;;;12.80;5.25;;;;;;;;;;5017439;28;20194;-72
2021/10/16 08:15:30;;;;;;;15.13;5.53;;;;;;;;;;5023539;28;20217;-71
2021/10/16 08:17:56;;;;;;;18.85;4.97;;;;;;;;;;5017610;28;20200;-71
2021/10/16 08:20:21;;;;;;;20.63;5.68;;;;;;;;;;5027393;28;20535;-71
2021/10/16 08:22:46;;;;;;;15.95;4.90;;;;;;;;;;5016640;28;20192;-71
2021/10/16 08:25:12;;;;;;;22.52;5.47;;;;;;;;;;5026869;28;20206;-71
2021/10/16 08:27:38;;;;;;;16.00;5.43;;;;;;;;;;5018819;28;20190;-71
2021/10/16 08:30:06;;;;;;;15.95;5.43;;;;;;;;;;5026571;28;20201;-71
2021/10/16 08:32:31;;;;;;;17.38;6.43;;;;;;;;;;5023919;28;20194;-72
2021/10/16 08:34:56;;;;;;;17.27;4.60;;;;;;;;;;5017916;28;20257;-72
2021/10/16 08:37:22;;;;;;;20.67;5.40;;;;;;;;;;5023350;28;20198;-72
2021/10/16 08:39:47;;;;;;;14.93;4.50;;;;;;;;;;5018869;28;20213;-72
2021/10/16 08:42:12;;;;;;;16.02;4.45;;;;;;;;;;5022814;28;20174;-72
2021/10/16 08:44:38;;;;;;;16.40;4.28;;;;;;;;;;5015165;28;20233;-71
2021/10/16 08:47:03;;;;;;;11.13;4.20;;;;;;;;;;5024008;28;20280;-72
2021/10/16 08:49:31;;;;;;;18.90;4.60;;;;;;;;;;5014258;28;20290;-72
2021/10/16 08:51:57;;;;;;;16.13;4.85;;;;;;;;;;5021834;28;20190;-72
2021/10/16 08:54:22;;;;;;;24.55;4.43;;;;;;;;;;5015824;28;20264;-71
2021/10/16 08:56:48;;;;;;;15.88;4.38;;;;;;;;;;5023334;28;20283;-73
2021/10/16 08:59:13;;;;;;;20.08;4.43;;;;;;;;;;5017553;28;20356;-72
2021/10/16 09:02:02;;;;;;;21.27;4.38;;;;;;;;;;5019218;28;20222;-72
2021/10/16 09:04:28;;;;;;;12.45;3.83;;;;;;;;;;5018816;28;20712;-72
2021/10/16 09:06:54;;;;;;;13.10;4.10;;;;;;;;;;5024664;28;20209;-71
2021/10/16 09:09:24;;;;;;;13.27;4.78;;;;;;;;;;5023864;28;20182;-72
2021/10/16 09:11:53;;;;;;;14.13;4.18;;;;;;;;;;5014301;28;20183;-72
2021/10/16 09:14:23;;;;;;;12.80;3.38;;;;;;;;;;5023902;28;20178;-72
2021/10/16 09:17:02;;;;;;;12.38;4.00;;;;;;;;;;5017603;28;20201;-71
2021/10/16 09:19:37;;;;;;;14.15;4.07;;;;;;;;;;5025176;28;20197;-71
2021/10/16 09:22:09;;;;;;;13.77;4.13;;;;;;;;;;5014240;28;20193;-71
2021/10/16 09:24:42;;;;;;;15.60;4.53;;;;;;;;;;5024725;28;20595;-72
2021/10/16 09:27:10;;;;;;;15.05;4.15;;;;;;;;;;5019765;28;20198;-71
2021/10/16 09:29:39;;;;;;;17.65;3.85;;;;;;;;;;5022649;28;20276;-71
2021/10/16 09:32:10;;;;;;;14.05;4.00;;;;;;;;;;5019588;28;20185;-71
2021/10/16 09:34:38;;;;;;;15.45;4.30;;;;;;;;;;5028228;28;20689;-71
2021/10/16 09:37:23;;;;;;;14.70;4.70;;;;;;;;;;5022711;28;20209;-73
2021/10/16 09:39:48;;;;;;;14.43;4.32;;;;;;;;;;5025132;28;20665;-72
2021/10/16 09:42:16;;;;;;;12.73;4.10;;;;;;;;;;5018605;28;20186;-72
2021/10/16 09:44:45;;;;;;;14.23;4.20;;;;;;;;;;5023616;28;20237;-72
2021/10/16 09:47:15;;;;;;;13.07;4.25;;;;;;;;;;5018884;28;20208;-71
2021/10/16 09:49:49;;;;;;;18.95;4.35;;;;;;;;;;5022696;28;20490;-71
2021/10/16 09:52:16;;;;;;;15.52;4.40;;;;;;;;;;5015231;28;20200;-70
2021/10/16 09:54:44;;;;;;;11.88;4.55;;;;;;;;;;5023081;28;20186;-70
2021/10/16 09:57:11;;;;;;;14.20;4.55;;;;;;;;;;5017499;28;20393;-70
2021/10/16 09:59:39;;;;;;;15.20;4.60;;;;;;;;;;5021812;28;20482;-71
2021/10/16 10:02:06;;;;;;;13.82;4.05;;;;;;;;;;5025320;28;20557;-70
2021/10/16 10:04:48;;;;;;;13.73;3.60;;;;;;;;;;5016837;28;20297;-70
2021/10/16 10:07:17;;;;;;;11.65;3.85;;;;;;;;;;5023367;28;20235;-71
2021/10/16 10:09:43;;;;;;;18.33;4.15;;;;;;;;;;5014882;28;20501;-70
2021/10/16 10:12:13;;;;;;;14.63;3.80;;;;;;;;;;5025522;28;20198;-70
2021/10/16 10:14:41;;;;;;;16.13;3.85;;;;;;;;;;5018157;28;20271;-71
2021/10/16 10:17:08;;;;;;;9.60;3.22;;;;;;;;;;5026318;28;20201;-70
2021/10/16 10:19:44;;;;;;;14.07;3.63;;;;;;;;;;5016502;28;20593;-71
2021/10/16 10:22:15;;;;;;;15.07;3.72;;;;;;;;;;5024319;28;20677;-71
2021/10/16 10:24:46;;;;;;;15.48;4.22;;;;;;;;;;5014412;28;20226;-71
2021/10/16 10:27:13;;;;;;;10.18;3.58;;;;;;;;;;5022601;28;20228;-70
2021/10/16 10:29:43;;;;;;;16.20;4.18;;;;;;;;;;5017049;28;20201;-70
2021/10/16 10:32:21;;;;;;;12.65;3.63;;;;;;;;;;5026307;28;20185;-70
2021/10/16 10:34:54;;;;;;;12.48;3.17;;;;;;;;;;5018788;28;20186;-70
2021/10/16 10:37:20;;;;;;;18.23;4.00;;;;;;;;;;5028761;28;20212;-71
2021/10/16 10:39:48;;;;;;;15.63;3.55;;;;;;;;;;5018943;28;20214;-70
2021/10/16 10:42:13;;;;;;;12.50;3.42;;;;;;;;;;5027237;28;20215;-70
2021/10/16 10:44:42;;;;;;;11.60;3.40;;;;;;;;;;5021407;28;20210;-70
2021/10/16 10:47:19;;;;;;;17.25;4.65;;;;;;;;;;5027553;28;20186;-71
2021/10/16 10:49:46;;;;;;;16.80;4.50;;;;;;;;;;5022560;28;20194;-71
2021/10/16 10:52:11;;;;;;;13.75;3.72;;;;;;;;;;5023089;28;20205;-70
2021/10/16 10:54:38;;;;;;;17.10;4.60;;;;;;;;;;5026213;28;20209;-70
2021/10/16 10:57:03;;;;;;;15.40;4.50;;;;;;;;;;5019932;28;20221;-70
2021/10/16 10:59:58;;;;;;;18.95;5.20;;;;;;;;;;5025345;28;20190;-71
2021/10/16 11:02:32;;;;;;;18.45;5.40;;;;;;;;;;5019124;28;20256;-71
2021/10/16 11:04:59;;;;;;;14.57;4.18;;;;;;;;;;5027184;28;20205;-71
2021/10/16 11:07:34;;;;;;;13.93;4.28;;;;;;;;;;5016848;28;20224;-71
2021/10/16 11:10:01;;;;;;;16.33;4.15;;;;;;;;;;5028968;28;20272;-70
2021/10/16 11:12:45;;;;;;;22.17;4.15;;;;;;;;;;5018541;28;20189;-70
2021/10/16 11:15:12;;;;;;;17.50;4.43;;;;;;;;;;5026382;28;20637;-71
2021/10/16 11:17:45;;;;;;;16.08;3.25;;;;;;;;;;5015429;28;20193;-70
2021/10/16 11:20:14;;;;;;;21.13;3.10;;;;;;;;;;5024228;28;20642;-70
2021/10/16 11:22:46;;;;;;;11.63;2.80;;;;;;;;;;5019042;28;20693;-70
2021/10/16 11:25:22;;;;;;;14.05;3.03;;;;;;;;;;5025053;28;20566;-70
2021/10/16 11:27:59;;;;;;;18.85;3.78;;;;;;;;;;5017571;28;20197;-70
2021/10/16 11:30:24;;;;;;;18.23;3.78;;;;;;;;;;5024730;28;20305;-70
2021/10/16 11:32:49;;;;;;;15.10;3.63;;;;;;;;;;5022170;28;20217;-71
2021/10/16 11:35:15;;;;;;;16.50;3.55;;;;;;;;;;5024213;28;20708;-70
2021/10/16 11:37:49;;;;;;;14.20;3.60;;;;;;;;;;5020287;28;20194;-70
2021/10/16 11:40:17;;;;;;;14.02;3.78;;;;;;;;;;5025136;28;20191;-70
2021/10/16 11:42:49;;;;;;;12.15;3.08;;;;;;;;;;5023833;28;20514;-70
2021/10/16 11:45:17;;;;;;;18.02;3.28;;;;;;;;;;5026338;28;20245;-70
2021/10/16 11:47:46;;;;;;;16.42;3.42;;;;;;;;;;5026985;28;20186;-71
2021/10/16 11:50:18;;;;;;;16.98;3.75;;;;;;;;;;5016915;28;20190;-70
2021/10/16 11:52:48;;;;;;;13.95;3.10;;;;;;;;;;5026969;28;20243;-70
2021/10/16 11:55:17;;;;;;;13.82;3.80;;;;;;;;;;5015413;28;20189;-70
2021/10/16 11:57:43;;;;;;;15.23;4.05;;;;;;;;;;5027569;28;20250;-71
2021/10/16 12:00:19;;;;;;;12.23;3.00;;;;;;;;;;5017907;28;20230;-71
2021/10/16 12:02:45;;;;;;;13.73;4.43;;;;;;;;;;5022875;28;20512;-71
2021/10/16 12:05:12;;;;;;;17.40;4.55;;;;;;;;;;5016616;28;20217;-71
2021/10/16 12:07:38;;;;;;;16.88;7.35;;;;;;;;;;5022160;28;20239;-71
2021/10/16 12:10:25;;;;;;;18.77;5.65;;;;;;;;;;5018317;28;20281;-70
2021/10/16 12:13:08;;;;;;;19.02;7.63;;;;;;;;;;5024839;28;20190;-70
2021/10/16 12:15:47;;;;;;;26.92;10.63;;;;;;;;;;5015854;28;20269;-70
2021/10/16 12:18:25;;;;;;;18.25;5.63;;;;;;;;;;5028304;28;20530;-71
2021/10/16 12:21:02;;;;;;;16.80;4.25;;;;;;;;;;5018318;28;20204;-70
2021/10/16 12:23:48;;;;;;;13.93;4.25;;;;;;;;;;5025178;28;20207;-70
2021/10/16 12:26:20;;;;;;;20.88;4.18;;;;;;;;;;5014521;28;20194;-70
2021/10/16 12:28:46;;;;;;;12.43;3.47;;;;;;;;;;5025831;28;20189;-70
2021/10/16 12:31:13;;;;;;;12.48;4.05;;;;;;;;;;5019262;28;20509;-70
2021/10/16 12:34:01;;;;;;;16.23;4.25;;;;;;;;;;5025986;28;20178;-70
2021/10/16 12:36:31;;;;;;;12.85;3.60;;;;;;;;;;5016902;28;20209;-71
2021/10/16 12:38:59;;;;;;;18.15;4.35;;;;;;;;;;5022161;28;20646;-70
2021/10/16 12:41:33;;;;;;;14.85;3.95;;;;;;;;;;5017794;28;20672;-71
2021/10/16 12:44:20;;;;;;;14.55;4.15;;;;;;;;;;5026748;28;20312;-70
2021/10/16 12:46:48;;;;;;;13.15;3.83;;;;;;;;;;5018990;28;20185;-70
2021/10/16 12:49:32;;;;;;;14.02;3.50;;;;;;;;;;5022912;28;20209;-70
2021/10/16 12:51:58;;;;;;;15.75;4.10;;;;;;;;;;5016402;28;20264;-71
2021/10/16 12:54:35;;;;;;;13.23;3.38;;;;;;;;;;5019386;28;21679;-71
2021/10/16 12:57:07;;;;;;;14.10;4.00;;;;;;;;;;5011240;28;20684;-71
2021/10/16 12:59:34;;;;;;;14.60;3.75;;;;;;;;;;5022738;28;20188;-69
2021/10/16 13:01:59;;;;;;;20.67;3.85;;;;;;;;;;4997816;28;20226;-70
2021/10/16 13:04:24;;;;;;;14.02;3.60;;;;;;;;;;5011549;28;20214;-70
2021/10/16 13:06:50;;;;;;;9.70;3.00;;;;;;;;;;5014923;28;20198;-72
2021/10/16 13:09:15;;;;;;;13.95;3.67;;;;;;;;;;4998402;28;20306;-71
2021/10/16 13:11:41;;;;;;;12.40;3.40;;;;;;;;;;5010948;28;20578;-71
2021/10/16 13:14:06;;;;;;;8.88;3.13;;;;;;;;;;4999329;28;20190;-70
2021/10/16 13:16:31;;;;;;;14.70;3.40;;;;;;;;;;5007560;28;20196;-69
2021/10/16 13:18:57;;;;;;;15.20;4.20;;;;;;;;;;5001860;28;20259;-69
2021/10/16 13:21:22;;;;;;;11.85;3.60;;;;;;;;;;5012846;28;20301;-70
2021/10/16 13:23:47;;;;;;;15.57;3.30;;;;;;;;;;5009435;28;20590;-70
2021/10/16 13:26:12;;;;;;;15.65;3.42;;;;;;;;;;5014518;28;20201;-70
2021/10/16 13:28:38;;;;;;;12.10;3.53;;;;;;;;;;5007763;28;20204;-70
2021/10/16 13:31:03;;;;;;;14.10;3.35;;;;;;;;;;5011967;28;20244;-70
2021/10/16 13:33:29;;;;;;;13.93;3.17;;;;;;;;;;5011955;28;20185;-70
2021/10/16 13:35:54;;;;;;;12.98;3.25;;;;;;;;;;5014146;28;20202;-70
2021/10/16 13:38:20;;;;;;;12.52;3.17;;;;;;;;;;5014973;28;20253;-70
2021/10/16 13:40:48;;;;;;;8.13;2.70;;;;;;;;;;5021630;28;22197;-70
2021/10/16 13:43:14;;;;;;;11.93;3.15;;;;;;;;;;5016258;28;20260;-71
2021/10/16 13:45:39;;;;;;;10.75;3.20;;;;;;;;;;5009598;28;20190;-69
2021/10/16 13:48:05;;;;;;;16.20;5.00;;;;;;;;;;5015428;28;20905;-71
2021/10/16 13:50:30;;;;;;;11.02;3.10;;;;;;;;;;5008237;28;20190;-69
2021/10/16 13:52:56;;;;;;;14.80;3.15;;;;;;;;;;5014424;28;20277;-70
2021/10/16 13:55:21;;;;;;;12.95;3.28;;;;;;;;;;5011183;28;20198;-70
2021/10/16 13:57:48;;;;;;;14.30;3.58;;;;;;;;;;5015846;28;20217;-70
2021/10/16 14:00:13;;;;;;;11.70;3.47;;;;;;;;;;5008044;28;20230;-70
2021/10/16 14:02:39;;;;;;;13.60;3.42;;;;;;;;;;5014109;28;20205;-70
2021/10/16 14:05:04;;;;;;;13.48;3.80;;;;;;;;;;5017056;28;20304;-70
2021/10/16 14:07:30;;;;;;;11.68;3.10;;;;;;;;;;5014152;28;20198;-70
2021/10/16 14:09:55;;;;;;;14.43;3.50;;;;;;;;;;5001426;28;20218;-70
2021/10/16 14:12:21;;;;;;;11.18;4.10;;;;;;;;;;5014049;28;20190;-71
2021/10/16 14:14:46;;;;;;;14.20;3.58;;;;;;;;;;4674221;28;10001038;-70
2021/10/16 14:17:11;;;;;;;12.18;3.50;;;;;;;;;;5012009;28;20186;-70
2021/10/16 14:19:37;;;;;;;10.93;3.30;;;;;;;;;;5015102;28;20285;-71
2021/10/16 14:22:02;;;;;;;14.27;3.70;;;;;;;;;;5013796;28;20202;-70
2021/10/16 14:24:27;;;;;;;12.68;3.78;;;;;;;;;;5023320;28;20249;-71
2021/10/16 14:26:53;;;;;;;19.55;3.83;;;;;;;;;;5015461;28;20197;-71
2021/10/16 14:29:18;;;;;;;12.60;4.38;;;;;;;;;;5018412;28;20194;-70
2021/10/16 14:31:43;;;;;;;13.00;4.57;;;;;;;;;;5017009;28;20191;-70